createdAt,value
2022-12-19T00:02:25.655Z,17.57
2022-12-19T00:07:30.564Z,17.47
2022-12-19T00:12:33.885Z,17.50
2022-12-19T00:17:37.337Z,17.30
2022-12-19T00:22:42.712Z,17.53
2022-12-19T00:27:46.012Z,18.13
2022-12-19T00:32:49.427Z,18.97
2022-12-19T00:37:54.211Z,19.10
2022-12-19T00:42:57.495Z,18.10
2022-12-19T00:48:03.264Z,19.40
2022-12-19T00:53:07.976Z,18.47
2022-12-19T00:58:11.233Z,20.30
2022-12-19T01:03:14.844Z,17.70
2022-12-19T01:08:19.852Z,17.13
2022-12-19T01:13:26.690Z,17.20
2022-12-19T01:18:30.075Z,18.80
2022-12-19T01:23:35.111Z,18.30
2022-12-19T01:28:40.689Z,18.30
2022-12-19T01:33:44.141Z,18.60
2022-12-19T01:38:50.564Z,16.73
2022-12-19T01:43:59.173Z,17.60
2022-12-19T01:49:04.158Z,17.93
2022-12-19T01:54:11.829Z,17.43
2022-12-19T01:59:20.449Z,18.43
2022-12-19T02:04:25.878Z,17.23
2022-12-19T02:09:31.870Z,16.30
2022-12-19T02:14:35.860Z,16.83
2022-12-19T02:20:06.089Z,18.93
2022-12-19T02:25:44.639Z,15.40
2022-12-19T02:30:59.295Z,15.70
2022-12-19T02:36:11.511Z,16.40
2022-12-19T02:41:20.352Z,20.37
2022-12-19T02:46:26.829Z,20.40
2022-12-19T02:51:30.248Z,18.73
2022-12-19T02:56:45.231Z,16.93
2022-12-19T03:01:57.397Z,17.57
2022-12-19T03:07:05.319Z,17.47
2022-12-19T03:12:17.613Z,18.67
2022-12-19T03:17:22.738Z,19.07
2022-12-19T03:22:26.144Z,19.53
2022-12-19T03:27:33.544Z,17.00
2022-12-19T03:32:39.985Z,16.60
2022-12-19T03:37:44.040Z,17.00
2022-12-19T03:43:07.636Z,14.67
2022-12-19T03:48:18.152Z,17.30
2022-12-19T03:53:32.955Z,17.93
2022-12-19T03:58:39.457Z,16.23
2022-12-19T04:03:45.646Z,15.67
2022-12-19T04:08:49.583Z,17.73
2022-12-19T04:13:57.079Z,15.70
2022-12-19T04:19:07.581Z,15.30
2022-12-19T04:24:16.449Z,16.70
2022-12-19T04:29:20.407Z,17.53
2022-12-19T04:34:25.140Z,17.53
2022-12-19T04:39:29.298Z,15.87
2022-12-19T04:44:32.555Z,17.17
2022-12-19T04:49:37.189Z,16.63
2022-12-19T04:54:40.444Z,15.03
2022-12-19T04:59:43.877Z,16.07
2022-12-19T05:04:49.583Z,16.43
2022-12-19T05:09:53.040Z,15.17
2022-12-19T05:14:56.333Z,15.90
2022-12-19T05:20:00.858Z,14.17
2022-12-19T05:25:04.452Z,14.83
2022-12-19T05:35:40.660Z,15.03
2022-12-19T05:40:44.497Z,15.97
2022-12-19T05:45:47.696Z,18.73
2022-12-19T05:50:52.340Z,16.13
2022-12-19T05:56:04.427Z,16.43
2022-12-19T06:01:09.872Z,16.80
2022-12-19T06:06:17.197Z,14.47
2022-12-19T06:11:20.440Z,12.00
2022-12-19T06:16:24.841Z,13.03
2022-12-19T06:21:29.611Z,16.30
2022-12-19T06:26:34.640Z,16.23
2022-12-19T06:31:38.792Z,14.63
2022-12-19T06:36:43.447Z,14.87
2022-12-19T06:42:04.176Z,15.50
2022-12-19T06:47:07.445Z,15.47
2022-12-19T06:52:12.139Z,24.35
2022-12-19T06:57:15.408Z,15.47
2022-12-19T07:02:28.525Z,13.77
2022-12-19T07:07:34.562Z,15.00
2022-12-19T07:12:38.143Z,14.70
2022-12-19T07:17:41.608Z,14.83
2022-12-19T07:22:46.698Z,14.40
2022-12-19T07:27:50.216Z,13.90
2022-12-19T07:32:53.556Z,14.40
2022-12-19T07:38:02.978Z,13.50
2022-12-19T07:43:07.520Z,14.93
2022-12-19T07:48:11.266Z,11.90
2022-12-19T07:53:16.052Z,13.50
2022-12-19T07:58:20.382Z,14.80
2022-12-19T08:03:23.869Z,14.07
2022-12-19T08:08:30.484Z,13.73
2022-12-19T08:13:39.694Z,13.47
2022-12-19T08:18:44.492Z,13.93
2022-12-19T08:23:49.156Z,14.93
2022-12-19T08:28:53.138Z,15.90
2022-12-19T08:33:57.913Z,15.17
2022-12-19T08:39:02.475Z,13.63
2022-12-19T08:44:05.695Z,15.03
2022-12-19T08:49:08.889Z,14.43
2022-12-19T08:54:13.536Z,13.80
2022-12-19T08:59:21.262Z,14.00
2022-12-19T09:05:50.090Z,13.40
2022-12-19T09:10:01.851Z,13.80
2022-12-19T09:15:05.616Z,14.27
2022-12-19T09:20:11.008Z,14.00
2022-12-19T09:25:15.711Z,14.93
2022-12-19T09:30:19.598Z,15.90
2022-12-19T09:35:28.460Z,15.17
2022-12-19T09:40:47.408Z,14.40
2022-12-19T09:45:58.722Z,13.93
2022-12-19T09:51:11.159Z,13.57
2022-12-19T09:56:18.229Z,13.27
2022-12-19T10:01:27.006Z,13.35
2022-12-19T10:07:08.829Z,15.23
2022-12-19T10:12:44.837Z,13.43
2022-12-19T10:17:54.323Z,11.30
2022-12-19T10:23:16.839Z,13.23
2022-12-19T10:28:37.398Z,12.35
2022-12-19T10:33:46.338Z,12.70
2022-12-19T10:38:57.989Z,10.85
2022-12-19T10:44:06.021Z,10.80
2022-12-19T10:49:15.100Z,10.50
2022-12-19T10:54:18.411Z,10.48
2022-12-19T10:59:23.352Z,9.50
2022-12-19T11:04:31.814Z,10.70
2022-12-19T11:09:39.552Z,9.90
2022-12-19T11:19:08.940Z,12.25
2022-12-19T11:29:43.775Z,10.82
2022-12-19T11:30:49.026Z,9.98
2022-12-19T11:36:41.006Z,9.75
2022-12-19T11:41:50.925Z,11.50
2022-12-19T11:47:04.367Z,10.63
2022-12-19T11:52:54.059Z,9.98
2022-12-19T11:57:43.271Z,10.98
2022-12-19T12:03:19.863Z,10.73
2022-12-19T12:10:53.825Z,9.98
2022-12-19T12:24:28.136Z,9.48
2022-12-19T12:31:18.534Z,8.48
2022-12-19T12:31:27.457Z,10.50
2022-12-19T12:42:17.537Z,8.82
2022-12-19T12:47:24.388Z,11.88
2022-12-19T12:52:35.120Z,10.52
2022-12-19T12:57:40.092Z,11.23
2022-12-19T13:02:46.364Z,10.48
2022-12-19T13:07:53.321Z,12.38
2022-12-19T13:13:01.753Z,11.38
2022-12-19T13:18:38.775Z,10.88
2022-12-19T13:23:51.034Z,10.20
2022-12-19T13:28:55.809Z,10.52
2022-12-19T13:34:19.420Z,10.23
2022-12-19T13:40:00.881Z,10.90
2022-12-19T13:45:06.914Z,11.07
2022-12-19T13:50:20.442Z,10.02
2022-12-19T13:55:24.294Z,9.50
2022-12-19T14:00:36.642Z,9.88
2022-12-19T14:06:15.879Z,9.75
2022-12-19T14:11:33.286Z,10.30
2022-12-19T14:16:34.394Z,10.18
2022-12-19T14:22:10.308Z,11.15
2022-12-19T14:28:23.522Z,10.68
2022-12-19T14:33:44.910Z,10.30
2022-12-19T14:39:20.588Z,10.17
2022-12-19T14:43:56.541Z,10.13
2022-12-19T14:54:11.034Z,9.63
2022-12-19T14:56:06.281Z,11.00
2022-12-19T15:01:09.168Z,10.27
2022-12-19T15:07:05.954Z,11.03
2022-12-19T15:13:14.197Z,11.37
2022-12-19T15:17:28.470Z,10.67
2022-12-19T15:22:33.140Z,8.77
2022-12-19T15:27:36.526Z,9.80
2022-12-19T15:32:39.709Z,9.13
2022-12-19T15:37:44.815Z,14.20
2022-12-19T15:42:53.057Z,11.67
2022-12-19T15:47:56.364Z,11.70
2022-12-19T15:53:02.586Z,11.47
2022-12-19T15:58:07.951Z,9.97
2022-12-19T16:03:22.685Z,9.43
2022-12-19T16:08:29.465Z,10.63
2022-12-19T16:13:35.341Z,12.03
2022-12-19T16:18:38.688Z,19.23
2022-12-19T16:23:43.338Z,22.47
2022-12-19T16:28:46.624Z,19.80
2022-12-19T16:33:49.896Z,17.90
2022-12-19T16:38:54.569Z,16.80
2022-12-19T16:43:57.966Z,17.57
2022-12-19T16:49:01.587Z,16.47
2022-12-19T16:54:07.106Z,14.67
2022-12-19T16:59:16.935Z,15.53
2022-12-19T17:04:30.474Z,18.00
2022-12-19T17:09:36.487Z,14.43
2022-12-19T17:14:40.815Z,14.43
2022-12-19T17:19:46.187Z,15.70
2022-12-19T17:24:50.977Z,14.87
2022-12-19T17:29:56.206Z,15.30
2022-12-19T17:34:59.491Z,13.70
2022-12-19T17:40:04.202Z,15.57
2022-12-19T17:45:09.117Z,16.03
2022-12-19T17:50:21.958Z,15.67
2022-12-19T17:55:29.019Z,18.23
2022-12-19T18:00:34.215Z,18.50
2022-12-19T18:05:37.944Z,18.50
2022-12-19T18:10:42.827Z,17.57
2022-12-19T18:15:46.268Z,13.63
2022-12-19T18:20:49.681Z,16.47
2022-12-19T18:26:01.175Z,16.20
2022-12-19T18:31:13.411Z,13.97
2022-12-19T18:36:20.335Z,15.17
2022-12-19T18:41:25.301Z,13.70
2022-12-19T18:46:30.330Z,11.90
2022-12-19T18:51:33.902Z,16.33
2022-12-19T18:56:38.687Z,13.07
2022-12-19T19:01:44.784Z,12.97
2022-12-19T19:06:52.004Z,12.80
2022-12-19T19:11:57.059Z,13.47
2022-12-19T19:17:00.450Z,12.77
2022-12-19T19:22:03.734Z,13.07
2022-12-19T19:27:08.325Z,13.10
2022-12-19T19:32:11.712Z,11.10
2022-12-19T19:37:16.515Z,11.77
2022-12-19T19:42:21.267Z,11.20
2022-12-19T19:47:28.420Z,11.83
2022-12-19T19:52:31.723Z,13.37
2022-12-19T19:57:36.634Z,11.93
2022-12-19T20:02:40.164Z,12.20
2022-12-19T20:07:44.072Z,12.13
2022-12-19T20:12:49.305Z,11.10
2022-12-19T20:17:52.993Z,10.70
2022-12-19T20:22:56.177Z,11.50
2022-12-19T20:28:00.840Z,11.73
2022-12-19T20:33:04.242Z,11.57
2022-12-19T20:38:07.458Z,11.90
2022-12-19T20:43:12.030Z,12.70
2022-12-19T20:48:15.284Z,11.87
2022-12-19T20:53:18.474Z,11.53
2022-12-19T20:58:23.834Z,11.63
2022-12-19T21:03:29.437Z,11.63
2022-12-19T21:08:33.801Z,11.83
2022-12-19T21:13:41.109Z,12.80
2022-12-19T21:18:45.836Z,10.57
2022-12-19T21:23:49.396Z,12.67
2022-12-19T21:28:54.295Z,10.20
2022-12-19T21:33:59.058Z,10.93
2022-12-19T21:39:03.031Z,11.27
2022-12-19T21:44:08.013Z,11.37
2022-12-19T21:49:11.503Z,9.87
2022-12-19T21:54:14.769Z,10.67
2022-12-19T21:59:19.450Z,10.97
2022-12-19T22:04:23.921Z,9.87
2022-12-19T22:09:27.395Z,9.50
2022-12-19T22:14:31.943Z,10.03
2022-12-19T22:19:35.577Z,11.27
2022-12-19T22:24:38.880Z,10.43
2022-12-19T22:29:43.693Z,11.27
2022-12-19T22:34:49.347Z,10.30
2022-12-19T22:39:52.533Z,11.00
2022-12-19T22:44:57.450Z,10.33
2022-12-19T22:50:00.782Z,10.87
2022-12-19T22:55:04.092Z,10.27
2022-12-19T23:00:13.065Z,10.30
2022-12-19T23:05:16.359Z,9.93
2022-12-19T23:10:20.035Z,8.97
2022-12-19T23:15:27.406Z,10.30
2022-12-19T23:20:30.698Z,10.07
2022-12-19T23:25:39.266Z,8.23
2022-12-19T23:30:43.857Z,8.57
2022-12-19T23:35:47.169Z,9.83
2022-12-19T23:40:50.464Z,9.57
2022-12-19T23:45:55.266Z,9.63
2022-12-19T23:51:00.120Z,8.93
2022-12-19T23:56:05.761Z,12.17
